sensor_id;sensor_type;location;lat;lon;timestamp;P1;durP1;ratioP1;P2;durP2;ratioP2
5493;SDS011;2769;49.864;8.656;2023-04-25T00:01:17;5.07;;;4.67;;
5493;SDS011;2769;49.864;8.656;2023-04-25T00:03:47;5.33;;;4.67;;
5493;SDS011;2769;49.864;8.656;2023-04-25T00:06:15;5.17;;;4.73;;
5493;SDS011;2769;49.864;8.656;2023-04-25T00:08:44;10.07;;;5.43;;
5493;SDS011;2769;49.864;8.656;2023-04-25T00:11:12;5.87;;;5.00;;
5493;SDS011;2769;49.864;8.656;2023-04-25T00:13:39;5.93;;;5.23;;
5493;SDS011;2769;49.864;8.656;2023-04-25T00:16:09;6.57;;;5.80;;
5493;SDS011;2769;49.864;8.656;2023-04-25T00:18:37;7.33;;;6.30;;
5493;SDS011;2769;49.864;8.656;2023-04-25T00:21:07;6.30;;;5.70;;
5493;SDS011;2769;49.864;8.656;2023-04-25T00:23:35;6.73;;;5.80;;
5493;SDS011;2769;49.864;8.656;2023-04-25T00:26:03;7.20;;;6.50;;
5493;SDS011;2769;49.864;8.656;2023-04-25T00:28:31;6.97;;;6.23;;
5493;SDS011;2769;49.864;8.656;2023-04-25T00:30:59;7.77;;;6.97;;
5493;SDS011;2769;49.864;8.656;2023-04-25T00:33:27;6.10;;;5.50;;
5493;SDS011;2769;49.864;8.656;2023-04-25T00:35:55;7.70;;;6.90;;
5493;SDS011;2769;49.864;8.656;2023-04-25T00:38:25;7.33;;;6.37;;
5493;SDS011;2769;49.864;8.656;2023-04-25T00:40:53;8.60;;;7.50;;
5493;SDS011;2769;49.864;8.656;2023-04-25T00:43:22;7.90;;;7.10;;
5493;SDS011;2769;49.864;8.656;2023-04-25T00:45:49;7.03;;;6.33;;
5493;SDS011;2769;49.864;8.656;2023-04-25T00:48:19;9.63;;;7.00;;
5493;SDS011;2769;49.864;8.656;2023-04-25T00:50:51;7.37;;;6.67;;
5493;SDS011;2769;49.864;8.656;2023-04-25T00:53:20;10.57;;;7.50;;
5493;SDS011;2769;49.864;8.656;2023-04-25T00:55:50;8.10;;;7.30;;
5493;SDS011;2769;49.864;8.656;2023-04-25T00:58:18;8.23;;;7.37;;
5493;SDS011;2769;49.864;8.656;2023-04-25T01:00:47;9.13;;;8.00;;
5493;SDS011;2769;49.864;8.656;2023-04-25T01:03:16;9.40;;;8.13;;
5493;SDS011;2769;49.864;8.656;2023-04-25T01:05:46;8.90;;;8.00;;
5493;SDS011;2769;49.864;8.656;2023-04-25T01:08:14;10.17;;;8.20;;
5493;SDS011;2769;49.864;8.656;2023-04-25T01:10:42;8.87;;;7.97;;
5493;SDS011;2769;49.864;8.656;2023-04-25T01:13:12;10.80;;;8.23;;
5493;SDS011;2769;49.864;8.656;2023-04-25T01:15:39;13.53;;;7.53;;
5493;SDS011;2769;49.864;8.656;2023-04-25T01:18:07;10.80;;;8.17;;
5493;SDS011;2769;49.864;8.656;2023-04-25T01:20:36;8.97;;;7.40;;
5493;SDS011;2769;49.864;8.656;2023-04-25T01:23:06;10.63;;;8.30;;
5493;SDS011;2769;49.864;8.656;2023-04-25T01:25:34;9.27;;;7.10;;
5493;SDS011;2769;49.864;8.656;2023-04-25T01:28:02;9.17;;;8.00;;
5493;SDS011;2769;49.864;8.656;2023-04-25T01:30:31;10.27;;;8.03;;
5493;SDS011;2769;49.864;8.656;2023-04-25T01:32:59;9.43;;;7.97;;
5493;SDS011;2769;49.864;8.656;2023-04-25T01:35:29;10.67;;;7.77;;
5493;SDS011;2769;49.864;8.656;2023-04-25T01:37:57;11.57;;;8.10;;
5493;SDS011;2769;49.864;8.656;2023-04-25T01:40:28;9.33;;;8.33;;
5493;SDS011;2769;49.864;8.656;2023-04-25T01:42:56;7.70;;;6.93;;
5493;SDS011;2769;49.864;8.656;2023-04-25T01:45:27;8.13;;;7.30;;
5493;SDS011;2769;49.864;8.656;2023-04-25T01:47:55;7.80;;;7.00;;
5493;SDS011;2769;49.864;8.656;2023-04-25T01:50:25;8.50;;;7.47;;
5493;SDS011;2769;49.864;8.656;2023-04-25T01:52:53;9.03;;;7.70;;
5493;SDS011;2769;49.864;8.656;2023-04-25T01:55:22;7.33;;;6.60;;
5493;SDS011;2769;49.864;8.656;2023-04-25T01:58:02;9.17;;;7.73;;
5493;SDS011;2769;49.864;8.656;2023-04-25T02:00:55;8.70;;;7.70;;
5493;SDS011;2769;49.864;8.656;2023-04-25T02:03:27;8.50;;;7.40;;
5493;SDS011;2769;49.864;8.656;2023-04-25T02:05:55;10.23;;;8.00;;
5493;SDS011;2769;49.864;8.656;2023-04-25T02:08:24;9.00;;;7.23;;
5493;SDS011;2769;49.864;8.656;2023-04-25T02:10:54;9.70;;;8.07;;
5493;SDS011;2769;49.864;8.656;2023-04-25T02:13:24;9.23;;;8.00;;
5493;SDS011;2769;49.864;8.656;2023-04-25T02:16:17;13.37;;;8.40;;
5493;SDS011;2769;49.864;8.656;2023-04-25T02:18:45;11.50;;;7.80;;
5493;SDS011;2769;49.864;8.656;2023-04-25T02:21:14;9.37;;;7.90;;
5493;SDS011;2769;49.864;8.656;2023-04-25T02:23:42;11.20;;;8.07;;
5493;SDS011;2769;49.864;8.656;2023-04-25T02:26:12;11.90;;;8.57;;
5493;SDS011;2769;49.864;8.656;2023-04-25T02:28:42;12.17;;;8.50;;
5493;SDS011;2769;49.864;8.656;2023-04-25T02:31:10;13.10;;;8.30;;
5493;SDS011;2769;49.864;8.656;2023-04-25T02:33:38;9.20;;;8.30;;
5493;SDS011;2769;49.864;8.656;2023-04-25T02:36:06;11.80;;;8.27;;
5493;SDS011;2769;49.864;8.656;2023-04-25T02:38:34;10.00;;;8.60;;
5493;SDS011;2769;49.864;8.656;2023-04-25T02:41:03;11.90;;;8.77;;
5493;SDS011;2769;49.864;8.656;2023-04-25T02:43:31;9.60;;;8.30;;
5493;SDS011;2769;49.864;8.656;2023-04-25T02:46:01;11.90;;;8.50;;
5493;SDS011;2769;49.864;8.656;2023-04-25T02:48:28;13.40;;;8.77;;
5493;SDS011;2769;49.864;8.656;2023-04-25T02:50:56;9.87;;;8.83;;
5493;SDS011;2769;49.864;8.656;2023-04-25T02:53:24;12.93;;;9.30;;
5493;SDS011;2769;49.864;8.656;2023-04-25T02:55:53;13.10;;;10.23;;
5493;SDS011;2769;49.864;8.656;2023-04-25T02:58:21;10.10;;;8.83;;
5493;SDS011;2769;49.864;8.656;2023-04-25T03:00:51;12.23;;;9.57;;
5493;SDS011;2769;49.864;8.656;2023-04-25T03:03:20;11.90;;;9.50;;
5493;SDS011;2769;49.864;8.656;2023-04-25T03:05:50;13.47;;;10.17;;
5493;SDS011;2769;49.864;8.656;2023-04-25T03:08:23;12.43;;;10.30;;
5493;SDS011;2769;49.864;8.656;2023-04-25T03:10:53;13.00;;;9.70;;
5493;SDS011;2769;49.864;8.656;2023-04-25T03:13:22;12.27;;;9.47;;
5493;SDS011;2769;49.864;8.656;2023-04-25T03:15:50;15.13;;;10.47;;
5493;SDS011;2769;49.864;8.656;2023-04-25T03:18:19;13.30;;;10.80;;
5493;SDS011;2769;49.864;8.656;2023-04-25T03:20:47;16.00;;;10.70;;
5493;SDS011;2769;49.864;8.656;2023-04-25T03:23:15;16.77;;;10.53;;
5493;SDS011;2769;49.864;8.656;2023-04-25T03:25:44;13.10;;;10.17;;
5493;SDS011;2769;49.864;8.656;2023-04-25T03:28:12;17.10;;;10.13;;
5493;SDS011;2769;49.864;8.656;2023-04-25T03:30:40;15.53;;;11.90;;
5493;SDS011;2769;49.864;8.656;2023-04-25T03:33:08;20.77;;;11.00;;
5493;SDS011;2769;49.864;8.656;2023-04-25T03:35:38;17.93;;;12.03;;
5493;SDS011;2769;49.864;8.656;2023-04-25T03:38:06;14.97;;;10.67;;
5493;SDS011;2769;49.864;8.656;2023-04-25T03:40:38;15.53;;;10.40;;
5493;SDS011;2769;49.864;8.656;2023-04-25T03:43:44;14.90;;;9.77;;
5493;SDS011;2769;49.864;8.656;2023-04-25T03:46:13;17.20;;;11.87;;
5493;SDS011;2769;49.864;8.656;2023-04-25T03:48:41;15.50;;;10.97;;
5493;SDS011;2769;49.864;8.656;2023-04-25T03:51:17;12.80;;;9.93;;
5493;SDS011;2769;49.864;8.656;2023-04-25T03:53:44;14.57;;;10.90;;
5493;SDS011;2769;49.864;8.656;2023-04-25T03:56:18;17.13;;;11.63;;
5493;SDS011;2769;49.864;8.656;2023-04-25T03:58:53;15.27;;;10.73;;
5493;SDS011;2769;49.864;8.656;2023-04-25T04:01:23;15.80;;;10.40;;
5493;SDS011;2769;49.864;8.656;2023-04-25T04:03:51;14.20;;;10.20;;
5493;SDS011;2769;49.864;8.656;2023-04-25T04:06:21;13.40;;;10.20;;
5493;SDS011;2769;49.864;8.656;2023-04-25T04:08:56;14.63;;;9.87;;
5493;SDS011;2769;49.864;8.656;2023-04-25T04:11:24;14.63;;;10.83;;
5493;SDS011;2769;49.864;8.656;2023-04-25T04:13:52;11.63;;;9.93;;
5493;SDS011;2769;49.864;8.656;2023-04-25T04:16:21;15.13;;;10.67;;
5493;SDS011;2769;49.864;8.656;2023-04-25T04:18:49;14.60;;;11.10;;
5493;SDS011;2769;49.864;8.656;2023-04-25T04:21:17;15.30;;;10.87;;
5493;SDS011;2769;49.864;8.656;2023-04-25T04:23:46;13.60;;;10.23;;
5493;SDS011;2769;49.864;8.656;2023-04-25T04:26:20;14.13;;;10.77;;
5493;SDS011;2769;49.864;8.656;2023-04-25T04:29:03;14.73;;;10.87;;
5493;SDS011;2769;49.864;8.656;2023-04-25T04:31:39;16.33;;;10.90;;
5493;SDS011;2769;49.864;8.656;2023-04-25T04:34:07;14.10;;;11.00;;
5493;SDS011;2769;49.864;8.656;2023-04-25T04:36:36;14.23;;;10.90;;
5493;SDS011;2769;49.864;8.656;2023-04-25T04:39:05;13.33;;;10.70;;
5493;SDS011;2769;49.864;8.656;2023-04-25T04:41:41;22.80;;;11.20;;
5493;SDS011;2769;49.864;8.656;2023-04-25T04:44:14;13.83;;;11.30;;
5493;SDS011;2769;49.864;8.656;2023-04-25T04:47:02;17.33;;;12.10;;
5493;SDS011;2769;49.864;8.656;2023-04-25T04:49:58;16.90;;;11.57;;
5493;SDS011;2769;49.864;8.656;2023-04-25T04:52:55;18.40;;;12.93;;
5493;SDS011;2769;49.864;8.656;2023-04-25T04:55:37;15.23;;;11.70;;
5493;SDS011;2769;49.864;8.656;2023-04-25T04:58:21;18.80;;;12.87;;
5493;SDS011;2769;49.864;8.656;2023-04-25T05:01:07;20.13;;;11.87;;
5493;SDS011;2769;49.864;8.656;2023-04-25T05:03:54;20.23;;;13.07;;
5493;SDS011;2769;49.864;8.656;2023-04-25T05:06:44;18.43;;;12.50;;
5493;SDS011;2769;49.864;8.656;2023-04-25T05:09:14;20.30;;;12.80;;
5493;SDS011;2769;49.864;8.656;2023-04-25T05:12:07;19.40;;;11.87;;
5493;SDS011;2769;49.864;8.656;2023-04-25T05:14:55;18.20;;;11.60;;
5493;SDS011;2769;49.864;8.656;2023-04-25T05:17:31;17.67;;;10.80;;
5493;SDS011;2769;49.864;8.656;2023-04-25T05:20:15;18.87;;;10.10;;
5493;SDS011;2769;49.864;8.656;2023-04-25T05:22:59;20.13;;;9.63;;
5493;SDS011;2769;49.864;8.656;2023-04-25T05:25:50;21.37;;;9.57;;
5493;SDS011;2769;49.864;8.656;2023-04-25T05:28:38;19.10;;;8.97;;
5493;SDS011;2769;49.864;8.656;2023-04-25T05:31:15;14.13;;;8.50;;
5493;SDS011;2769;49.864;8.656;2023-04-25T05:33:49;22.37;;;9.43;;
5493;SDS011;2769;49.864;8.656;2023-04-25T05:36:18;15.27;;;7.60;;
5493;SDS011;2769;49.864;8.656;2023-04-25T05:38:47;16.80;;;9.10;;
5493;SDS011;2769;49.864;8.656;2023-04-25T05:41:15;19.27;;;9.30;;
5493;SDS011;2769;49.864;8.656;2023-04-25T05:43:52;16.23;;;9.10;;
5493;SDS011;2769;49.864;8.656;2023-04-25T05:46:42;17.00;;;9.30;;
5493;SDS011;2769;49.864;8.656;2023-04-25T05:49:16;16.23;;;8.73;;
5493;SDS011;2769;49.864;8.656;2023-04-25T05:52:03;22.23;;;8.90;;
5493;SDS011;2769;49.864;8.656;2023-04-25T05:55:01;17.37;;;9.07;;
5493;SDS011;2769;49.864;8.656;2023-04-25T05:57:30;18.13;;;9.47;;
5493;SDS011;2769;49.864;8.656;2023-04-25T06:00:00;24.00;;;9.60;;
5493;SDS011;2769;49.864;8.656;2023-04-25T06:02:43;15.13;;;8.60;;
5493;SDS011;2769;49.864;8.656;2023-04-25T06:05:13;21.53;;;8.40;;
5493;SDS011;2769;49.864;8.656;2023-04-25T06:07:41;15.93;;;7.40;;
5493;SDS011;2769;49.864;8.656;2023-04-25T06:10:10;11.73;;;8.57;;
5493;SDS011;2769;49.864;8.656;2023-04-25T06:12:37;17.23;;;8.53;;
5493;SDS011;2769;49.864;8.656;2023-04-25T06:15:11;16.30;;;7.43;;
5493;SDS011;2769;49.864;8.656;2023-04-25T06:17:53;15.60;;;8.27;;
5493;SDS011;2769;49.864;8.656;2023-04-25T06:20:22;12.70;;;8.00;;
5493;SDS011;2769;49.864;8.656;2023-04-25T06:22:55;13.10;;;8.37;;
5493;SDS011;2769;49.864;8.656;2023-04-25T06:25:32;14.53;;;8.43;;
5493;SDS011;2769;49.864;8.656;2023-04-25T06:28:01;16.03;;;8.23;;
5493;SDS011;2769;49.864;8.656;2023-04-25T06:30:30;13.00;;;8.20;;
5493;SDS011;2769;49.864;8.656;2023-04-25T06:33:04;17.83;;;7.77;;
5493;SDS011;2769;49.864;8.656;2023-04-25T06:35:32;16.60;;;7.53;;
5493;SDS011;2769;49.864;8.656;2023-04-25T06:38:00;11.07;;;7.17;;
5493;SDS011;2769;49.864;8.656;2023-04-25T06:40:29;11.43;;;7.10;;
5493;SDS011;2769;49.864;8.656;2023-04-25T06:42:57;11.50;;;6.40;;
5493;SDS011;2769;49.864;8.656;2023-04-25T06:45:47;12.03;;;6.60;;
5493;SDS011;2769;49.864;8.656;2023-04-25T06:48:15;11.07;;;6.30;;
5493;SDS011;2769;49.864;8.656;2023-04-25T06:50:44;10.00;;;6.70;;
5493;SDS011;2769;49.864;8.656;2023-04-25T06:53:12;11.20;;;6.50;;
5493;SDS011;2769;49.864;8.656;2023-04-25T06:55:43;14.20;;;6.50;;
5493;SDS011;2769;49.864;8.656;2023-04-25T06:58:15;10.07;;;6.47;;
5493;SDS011;2769;49.864;8.656;2023-04-25T07:01:03;13.90;;;6.40;;
5493;SDS011;2769;49.864;8.656;2023-04-25T07:03:31;13.23;;;5.97;;
5493;SDS011;2769;49.864;8.656;2023-04-25T07:06:05;17.43;;;6.53;;
5493;SDS011;2769;49.864;8.656;2023-04-25T07:08:34;9.37;;;6.50;;
5493;SDS011;2769;49.864;8.656;2023-04-25T07:11:02;9.90;;;4.90;;
5493;SDS011;2769;49.864;8.656;2023-04-25T07:13:30;10.80;;;6.20;;
5493;SDS011;2769;49.864;8.656;2023-04-25T07:15:58;9.10;;;5.50;;
5493;SDS011;2769;49.864;8.656;2023-04-25T07:18:30;12.40;;;5.97;;
5493;SDS011;2769;49.864;8.656;2023-04-25T07:21:01;13.83;;;6.43;;
5493;SDS011;2769;49.864;8.656;2023-04-25T07:23:31;12.73;;;6.00;;
5493;SDS011;2769;49.864;8.656;2023-04-25T07:26:06;10.33;;;5.40;;
5493;SDS011;2769;49.864;8.656;2023-04-25T07:28:34;7.87;;;5.27;;
5493;SDS011;2769;49.864;8.656;2023-04-25T07:31:02;8.93;;;5.40;;
5493;SDS011;2769;49.864;8.656;2023-04-25T07:33:32;11.93;;;5.40;;
5493;SDS011;2769;49.864;8.656;2023-04-25T07:36:01;9.83;;;6.00;;
5493;SDS011;2769;49.864;8.656;2023-04-25T07:38:29;7.53;;;5.90;;
5493;SDS011;2769;49.864;8.656;2023-04-25T07:40:57;13.50;;;6.70;;
5493;SDS011;2769;49.864;8.656;2023-04-25T07:43:25;17.17;;;6.17;;
5493;SDS011;2769;49.864;8.656;2023-04-25T07:45:57;9.63;;;5.27;;
5493;SDS011;2769;49.864;8.656;2023-04-25T07:48:27;15.10;;;6.27;;
5493;SDS011;2769;49.864;8.656;2023-04-25T07:50:57;17.50;;;6.50;;
5493;SDS011;2769;49.864;8.656;2023-04-25T07:53:25;13.80;;;6.00;;
5493;SDS011;2769;49.864;8.656;2023-04-25T07:56:01;8.70;;;5.70;;
5493;SDS011;2769;49.864;8.656;2023-04-25T07:58:32;9.27;;;5.03;;
5493;SDS011;2769;49.864;8.656;2023-04-25T08:01:02;13.70;;;5.40;;
5493;SDS011;2769;49.864;8.656;2023-04-25T08:03:33;12.37;;;5.70;;
5493;SDS011;2769;49.864;8.656;2023-04-25T08:06:07;10.00;;;5.40;;
5493;SDS011;2769;49.864;8.656;2023-04-25T08:08:46;7.57;;;5.17;;
5493;SDS011;2769;49.864;8.656;2023-04-25T08:11:17;7.30;;;5.03;;
5493;SDS011;2769;49.864;8.656;2023-04-25T08:13:45;11.17;;;5.43;;
5493;SDS011;2769;49.864;8.656;2023-04-25T08:16:13;9.53;;;4.47;;
5493;SDS011;2769;49.864;8.656;2023-04-25T08:18:42;11.57;;;4.73;;
5493;SDS011;2769;49.864;8.656;2023-04-25T08:21:11;7.30;;;3.90;;
5493;SDS011;2769;49.864;8.656;2023-04-25T08:23:40;7.67;;;3.60;;
5493;SDS011;2769;49.864;8.656;2023-04-25T08:26:12;11.70;;;3.27;;
5493;SDS011;2769;49.864;8.656;2023-04-25T08:28:42;7.80;;;2.90;;
5493;SDS011;2769;49.864;8.656;2023-04-25T08:31:10;5.77;;;2.90;;
5493;SDS011;2769;49.864;8.656;2023-04-25T08:33:47;9.30;;;2.93;;
5493;SDS011;2769;49.864;8.656;2023-04-25T08:36:32;5.70;;;3.00;;
5493;SDS011;2769;49.864;8.656;2023-04-25T08:39:17;5.60;;;3.10;;
5493;SDS011;2769;49.864;8.656;2023-04-25T08:42:05;5.63;;;2.83;;
5493;SDS011;2769;49.864;8.656;2023-04-25T08:44:35;5.03;;;3.20;;
5493;SDS011;2769;49.864;8.656;2023-04-25T08:47:04;3.67;;;2.77;;
5493;SDS011;2769;49.864;8.656;2023-04-25T08:49:42;5.60;;;2.60;;
5493;SDS011;2769;49.864;8.656;2023-04-25T08:52:15;7.00;;;3.20;;
5493;SDS011;2769;49.864;8.656;2023-04-25T08:54:45;10.50;;;3.40;;
5493;SDS011;2769;49.864;8.656;2023-04-25T08:57:16;5.60;;;3.00;;
5493;SDS011;2769;49.864;8.656;2023-04-25T08:59:46;9.93;;;2.90;;
5493;SDS011;2769;49.864;8.656;2023-04-25T09:02:15;8.07;;;4.00;;
5493;SDS011;2769;49.864;8.656;2023-04-25T09:04:48;6.00;;;3.30;;
5493;SDS011;2769;49.864;8.656;2023-04-25T09:07:17;4.10;;;3.20;;
5493;SDS011;2769;49.864;8.656;2023-04-25T09:09:47;6.80;;;3.17;;
5493;SDS011;2769;49.864;8.656;2023-04-25T09:12:19;3.83;;;3.00;;
5493;SDS011;2769;49.864;8.656;2023-04-25T09:15:02;4.13;;;2.83;;
5493;SDS011;2769;49.864;8.656;2023-04-25T09:17:49;3.33;;;2.90;;
5493;SDS011;2769;49.864;8.656;2023-04-25T09:20:25;3.57;;;2.67;;
5493;SDS011;2769;49.864;8.656;2023-04-25T09:23:02;4.20;;;3.00;;
5493;SDS011;2769;49.864;8.656;2023-04-25T09:25:34;4.00;;;2.93;;
5493;SDS011;2769;49.864;8.656;2023-04-25T09:28:06;4.63;;;3.20;;
5493;SDS011;2769;49.864;8.656;2023-04-25T09:30:35;5.57;;;2.70;;
5493;SDS011;2769;49.864;8.656;2023-04-25T09:33:15;3.90;;;2.70;;
5493;SDS011;2769;49.864;8.656;2023-04-25T09:35:48;3.13;;;2.77;;
5493;SDS011;2769;49.864;8.656;2023-04-25T09:38:48;5.17;;;3.70;;
5493;SDS011;2769;49.864;8.656;2023-04-25T09:41:28;4.37;;;2.70;;
5493;SDS011;2769;49.864;8.656;2023-04-25T09:43:59;9.00;;;2.97;;
5493;SDS011;2769;49.864;8.656;2023-04-25T09:46:35;7.07;;;3.33;;
5493;SDS011;2769;49.864;8.656;2023-04-25T09:49:12;6.73;;;3.00;;
5493;SDS011;2769;49.864;8.656;2023-04-25T09:52:02;5.47;;;3.40;;
5493;SDS011;2769;49.864;8.656;2023-04-25T09:54:38;8.47;;;3.63;;
5493;SDS011;2769;49.864;8.656;2023-04-25T09:57:10;6.90;;;3.60;;
5493;SDS011;2769;49.864;8.656;2023-04-25T09:59:43;6.07;;;3.80;;
5493;SDS011;2769;49.864;8.656;2023-04-25T10:02:12;5.33;;;3.10;;
5493;SDS011;2769;49.864;8.656;2023-04-25T10:04:42;3.67;;;3.37;;
5493;SDS011;2769;49.864;8.656;2023-04-25T10:07:20;4.70;;;3.47;;
5493;SDS011;2769;49.864;8.656;2023-04-25T10:09:57;6.30;;;3.10;;
5493;SDS011;2769;49.864;8.656;2023-04-25T10:12:27;5.67;;;2.90;;
5493;SDS011;2769;49.864;8.656;2023-04-25T10:14:55;9.70;;;3.30;;
5493;SDS011;2769;49.864;8.656;2023-04-25T10:17:23;6.13;;;3.20;;
5493;SDS011;2769;49.864;8.656;2023-04-25T10:19:51;6.30;;;3.70;;
5493;SDS011;2769;49.864;8.656;2023-04-25T10:22:20;3.70;;;3.10;;
5493;SDS011;2769;49.864;8.656;2023-04-25T10:24:51;6.00;;;3.10;;
5493;SDS011;2769;49.864;8.656;2023-04-25T10:27:20;3.57;;;3.20;;
5493;SDS011;2769;49.864;8.656;2023-04-25T10:29:59;5.47;;;3.20;;
5493;SDS011;2769;49.864;8.656;2023-04-25T10:32:30;8.53;;;3.47;;
5493;SDS011;2769;49.864;8.656;2023-04-25T10:35:06;5.27;;;3.47;;
5493;SDS011;2769;49.864;8.656;2023-04-25T10:37:37;8.63;;;4.10;;
5493;SDS011;2769;49.864;8.656;2023-04-25T10:40:09;5.60;;;3.80;;
5493;SDS011;2769;49.864;8.656;2023-04-25T10:42:39;6.57;;;4.00;;
5493;SDS011;2769;49.864;8.656;2023-04-25T10:45:09;5.30;;;4.10;;
5493;SDS011;2769;49.864;8.656;2023-04-25T10:47:43;6.47;;;4.13;;
5493;SDS011;2769;49.864;8.656;2023-04-25T10:50:13;5.97;;;4.20;;
5493;SDS011;2769;49.864;8.656;2023-04-25T10:52:42;7.17;;;3.83;;
5493;SDS011;2769;49.864;8.656;2023-04-25T10:55:10;5.23;;;3.97;;
5493;SDS011;2769;49.864;8.656;2023-04-25T10:57:40;4.20;;;3.90;;
5493;SDS011;2769;49.864;8.656;2023-04-25T11:00:10;5.83;;;4.20;;
5493;SDS011;2769;49.864;8.656;2023-04-25T11:02:46;5.40;;;3.80;;
5493;SDS011;2769;49.864;8.656;2023-04-25T11:05:16;8.30;;;5.17;;
5493;SDS011;2769;49.864;8.656;2023-04-25T11:07:49;5.80;;;4.50;;
5493;SDS011;2769;49.864;8.656;2023-04-25T11:10:32;10.27;;;4.83;;
5493;SDS011;2769;49.864;8.656;2023-04-25T11:13:03;6.30;;;4.53;;
5493;SDS011;2769;49.864;8.656;2023-04-25T11:15:31;6.10;;;4.70;;
5493;SDS011;2769;49.864;8.656;2023-04-25T11:17:59;5.87;;;5.23;;
5493;SDS011;2769;49.864;8.656;2023-04-25T11:20:28;5.63;;;4.30;;
5493;SDS011;2769;49.864;8.656;2023-04-25T11:22:57;5.50;;;4.43;;
5493;SDS011;2769;49.864;8.656;2023-04-25T11:25:25;5.80;;;4.10;;
5493;SDS011;2769;49.864;8.656;2023-04-25T11:27:54;4.90;;;3.90;;
5493;SDS011;2769;49.864;8.656;2023-04-25T11:30:26;4.13;;;3.60;;
5493;SDS011;2769;49.864;8.656;2023-04-25T11:32:55;7.20;;;4.10;;
5493;SDS011;2769;49.864;8.656;2023-04-25T11:35:23;5.07;;;4.13;;
5493;SDS011;2769;49.864;8.656;2023-04-25T11:37:52;10.07;;;4.20;;
5493;SDS011;2769;49.864;8.656;2023-04-25T11:40:20;5.50;;;4.27;;
5493;SDS011;2769;49.864;8.656;2023-04-25T11:42:48;5.20;;;4.17;;
5493;SDS011;2769;49.864;8.656;2023-04-25T11:45:20;5.60;;;4.77;;
5493;SDS011;2769;49.864;8.656;2023-04-25T11:47:50;7.23;;;5.00;;
5493;SDS011;2769;49.864;8.656;2023-04-25T11:50:18;5.20;;;4.70;;
5493;SDS011;2769;49.864;8.656;2023-04-25T11:52:46;6.83;;;5.17;;
5493;SDS011;2769;49.864;8.656;2023-04-25T11:55:15;8.23;;;4.90;;
5493;SDS011;2769;49.864;8.656;2023-04-25T11:57:45;7.97;;;4.97;;
5493;SDS011;2769;49.864;8.656;2023-04-25T12:00:16;8.70;;;5.00;;
5493;SDS011;2769;49.864;8.656;2023-04-25T12:02:46;6.10;;;4.60;;
5493;SDS011;2769;49.864;8.656;2023-04-25T12:05:16;9.63;;;4.47;;
5493;SDS011;2769;49.864;8.656;2023-04-25T12:07:58;10.10;;;4.37;;
5493;SDS011;2769;49.864;8.656;2023-04-25T12:10:37;7.17;;;4.20;;
5493;SDS011;2769;49.864;8.656;2023-04-25T12:13:22;7.07;;;4.50;;
5493;SDS011;2769;49.864;8.656;2023-04-25T12:15:51;6.97;;;4.73;;
5493;SDS011;2769;49.864;8.656;2023-04-25T12:18:19;6.00;;;4.67;;
5493;SDS011;2769;49.864;8.656;2023-04-25T12:20:50;6.40;;;4.77;;
5493;SDS011;2769;49.864;8.656;2023-04-25T12:23:24;15.10;;;6.20;;
5493;SDS011;2769;49.864;8.656;2023-04-25T12:25:56;8.70;;;4.53;;
5493;SDS011;2769;49.864;8.656;2023-04-25T12:28:25;14.77;;;5.30;;
5493;SDS011;2769;49.864;8.656;2023-04-25T12:30:54;10.80;;;5.43;;
5493;SDS011;2769;49.864;8.656;2023-04-25T12:33:24;4.67;;;4.20;;
5493;SDS011;2769;49.864;8.656;2023-04-25T12:35:54;12.43;;;4.63;;
5493;SDS011;2769;49.864;8.656;2023-04-25T12:38:23;13.40;;;4.30;;
5493;SDS011;2769;49.864;8.656;2023-04-25T12:40:51;5.10;;;4.60;;
5493;SDS011;2769;49.864;8.656;2023-04-25T12:43:19;9.03;;;3.90;;
5493;SDS011;2769;49.864;8.656;2023-04-25T12:45:48;9.73;;;4.30;;
5493;SDS011;2769;49.864;8.656;2023-04-25T12:48:17;7.93;;;4.30;;
5493;SDS011;2769;49.864;8.656;2023-04-25T12:50:45;5.10;;;3.50;;
5493;SDS011;2769;49.864;8.656;2023-04-25T12:53:16;9.53;;;3.83;;
5493;SDS011;2769;49.864;8.656;2023-04-25T12:55:45;6.97;;;3.80;;
5493;SDS011;2769;49.864;8.656;2023-04-25T12:58:13;5.80;;;4.60;;
5493;SDS011;2769;49.864;8.656;2023-04-25T13:00:41;9.43;;;3.53;;
5493;SDS011;2769;49.864;8.656;2023-04-25T13:03:09;9.60;;;4.00;;
5493;SDS011;2769;49.864;8.656;2023-04-25T13:05:39;7.50;;;3.47;;
5493;SDS011;2769;49.864;8.656;2023-04-25T13:08:07;6.67;;;3.53;;
5493;SDS011;2769;49.864;8.656;2023-04-25T13:10:36;3.70;;;3.30;;
5493;SDS011;2769;49.864;8.656;2023-04-25T13:13:05;4.33;;;3.17;;
5493;SDS011;2769;49.864;8.656;2023-04-25T13:15:33;6.30;;;3.47;;
5493;SDS011;2769;49.864;8.656;2023-04-25T13:18:02;4.80;;;3.30;;
5493;SDS011;2769;49.864;8.656;2023-04-25T13:20:30;10.30;;;3.93;;
5493;SDS011;2769;49.864;8.656;2023-04-25T13:22:58;9.87;;;4.03;;
5493;SDS011;2769;49.864;8.656;2023-04-25T13:25:28;5.20;;;3.30;;
5493;SDS011;2769;49.864;8.656;2023-04-25T13:27:57;6.30;;;3.33;;
5493;SDS011;2769;49.864;8.656;2023-04-25T13:30:25;5.07;;;3.70;;
5493;SDS011;2769;49.864;8.656;2023-04-25T13:32:54;6.40;;;3.60;;
5493;SDS011;2769;49.864;8.656;2023-04-25T13:35:23;6.20;;;3.90;;
5493;SDS011;2769;49.864;8.656;2023-04-25T13:37:52;9.93;;;3.50;;
5493;SDS011;2769;49.864;8.656;2023-04-25T13:40:20;5.90;;;3.77;;
5493;SDS011;2769;49.864;8.656;2023-04-25T13:42:50;7.67;;;3.33;;
5493;SDS011;2769;49.864;8.656;2023-04-25T13:45:20;12.37;;;3.40;;
5493;SDS011;2769;49.864;8.656;2023-04-25T13:47:48;6.07;;;3.20;;
5493;SDS011;2769;49.864;8.656;2023-04-25T13:50:16;6.43;;;3.30;;
5493;SDS011;2769;49.864;8.656;2023-04-25T13:52:44;3.50;;;3.20;;
5493;SDS011;2769;49.864;8.656;2023-04-25T13:55:12;7.50;;;3.40;;
5493;SDS011;2769;49.864;8.656;2023-04-25T13:57:40;11.93;;;3.50;;
5493;SDS011;2769;49.864;8.656;2023-04-25T14:00:08;4.37;;;3.00;;
5493;SDS011;2769;49.864;8.656;2023-04-25T14:02:38;6.17;;;3.43;;
5493;SDS011;2769;49.864;8.656;2023-04-25T14:05:07;6.87;;;4.33;;
5493;SDS011;2769;49.864;8.656;2023-04-25T14:07:36;4.90;;;3.20;;
5493;SDS011;2769;49.864;8.656;2023-04-25T14:10:04;5.77;;;3.10;;
5493;SDS011;2769;49.864;8.656;2023-04-25T14:12:33;5.83;;;3.20;;
5493;SDS011;2769;49.864;8.656;2023-04-25T14:15:01;7.70;;;2.60;;
5493;SDS011;2769;49.864;8.656;2023-04-25T14:17:30;6.20;;;2.87;;
5493;SDS011;2769;49.864;8.656;2023-04-25T14:19:59;8.73;;;2.90;;
5493;SDS011;2769;49.864;8.656;2023-04-25T14:22:27;6.03;;;3.00;;
5493;SDS011;2769;49.864;8.656;2023-04-25T14:24:55;6.13;;;2.50;;
5493;SDS011;2769;49.864;8.656;2023-04-25T14:27:24;7.90;;;3.00;;
5493;SDS011;2769;49.864;8.656;2023-04-25T14:30:01;7.03;;;3.07;;
5493;SDS011;2769;49.864;8.656;2023-04-25T14:32:30;5.97;;;3.20;;
5493;SDS011;2769;49.864;8.656;2023-04-25T14:35:05;5.20;;;3.07;;
5493;SDS011;2769;49.864;8.656;2023-04-25T14:37:34;9.93;;;2.90;;
5493;SDS011;2769;49.864;8.656;2023-04-25T14:40:02;5.00;;;2.80;;
5493;SDS011;2769;49.864;8.656;2023-04-25T14:42:30;4.57;;;2.80;;
5493;SDS011;2769;49.864;8.656;2023-04-25T14:45:02;4.30;;;3.13;;
5493;SDS011;2769;49.864;8.656;2023-04-25T14:47:30;4.80;;;3.40;;
5493;SDS011;2769;49.864;8.656;2023-04-25T14:49:58;5.70;;;2.80;;
5493;SDS011;2769;49.864;8.656;2023-04-25T14:52:27;6.73;;;2.80;;
5493;SDS011;2769;49.864;8.656;2023-04-25T14:54:55;5.60;;;3.20;;
5493;SDS011;2769;49.864;8.656;2023-04-25T14:57:23;9.17;;;3.13;;
5493;SDS011;2769;49.864;8.656;2023-04-25T14:59:51;7.97;;;3.37;;
5493;SDS011;2769;49.864;8.656;2023-04-25T15:02:19;4.47;;;3.07;;
5493;SDS011;2769;49.864;8.656;2023-04-25T15:04:47;8.93;;;3.00;;
5493;SDS011;2769;49.864;8.656;2023-04-25T15:07:16;4.70;;;3.00;;
5493;SDS011;2769;49.864;8.656;2023-04-25T15:09:46;5.43;;;3.10;;
5493;SDS011;2769;49.864;8.656;2023-04-25T15:12:14;6.37;;;3.30;;
5493;SDS011;2769;49.864;8.656;2023-04-25T15:14:42;4.30;;;3.13;;
5493;SDS011;2769;49.864;8.656;2023-04-25T15:17:10;11.53;;;3.10;;
5493;SDS011;2769;49.864;8.656;2023-04-25T15:19:40;5.97;;;3.60;;
5493;SDS011;2769;49.864;8.656;2023-04-25T15:22:08;8.97;;;2.93;;
5493;SDS011;2769;49.864;8.656;2023-04-25T15:24:37;5.70;;;3.10;;
5493;SDS011;2769;49.864;8.656;2023-04-25T15:27:06;8.33;;;2.90;;
5493;SDS011;2769;49.864;8.656;2023-04-25T15:29:34;7.40;;;2.53;;
5493;SDS011;2769;49.864;8.656;2023-04-25T15:32:03;6.23;;;3.00;;
5493;SDS011;2769;49.864;8.656;2023-04-25T15:34:31;4.37;;;2.97;;